Spencer Philip — WDE7248 — position and weather

sailwx.info

Track history (hours):
 
Tides and Currents Weather Stations Pressure Air Temp Water Temp Dewpoint Dewpoint Depression Visibility Wind Speed Wind Dir Waves Ship Positions

Spencer Philip

Owner: Phil Guilbeau Offshore Inc., Golden Meadow, LA. More information available from US FCC via Universal Licensing System and Coast Guard Vessel Documentation Center.

Last reported at 2017-Sep-21 21:24 UTC. Time now 2017-Oct-20 17:53 UTC.
Position N 29°39' W 092°16'.
Warning: this ship's position is 28 days out of date.

Length 44 m; draft 3.3 m.

Type: Cargo ship. MMSI: 367390890.

Date/timePositionNaut miles runAvg speedWind from/ knotsBaromVisibWave heightAir tempDewpointWater temp
2017-Sep-21 21:24N 29°39' W 092°16'2 6.1
2017-Sep-21 21:00N 29°41' W 092°15'3 6.0
2017-Sep-21 20:30N 29°44' W 092°14'3 5.9
2017-Sep-21 20:00N 29°46' W 092°11'3 4.7
2017-Sep-21 19:27N 29°47' W 092°09'1 1.1
2017-Sep-21 19:00N 29°48' W 092°09'0 0.0
2017-Sep-21 18:30N 29°48' W 092°09'0 0.0
2017-Sep-21 18:00N 29°48' W 092°09'0 0.1
2017-Sep-21 17:30N 29°48' W 092°09'0 0.0
2017-Sep-21 17:00N 29°48' W 092°09'0 0.0
2017-Sep-21 16:24N 29°48' W 092°09'0 0.0
2017-Sep-21 16:00N 29°48' W 092°09'0 0.0
2017-Sep-21 15:30N 29°48' W 092°09'0 0.2
2017-Sep-21 15:00N 29°47' W 092°09'3 5.2
2017-Sep-21 14:30N 29°46' W 092°11'4 7.4
2017-Sep-21 14:00N 29°44' W 092°14'3 6.6
2017-Sep-21 13:30N 29°41' W 092°15'  
2017-Sep-13 00:10N 29°38' W 092°16'1 5.3
2017-Sep-12 23:59N 29°39' W 092°16'3 5.5
2017-Sep-12 23:30N 29°42' W 092°15'3 5.5
2017-Sep-12 23:00N 29°44' W 092°14'3 5.6
2017-Sep-12 22:30N 29°46' W 092°11'2 4.3
2017-Sep-12 22:00N 29°47' W 092°09'1 1.3
2017-Sep-12 21:30N 29°48' W 092°09'0 0.0
2017-Sep-12 21:00N 29°48' W 092°09'0 0.0
2017-Sep-12 20:30N 29°48' W 092°09'0 0.0
2017-Sep-12 20:00N 29°48' W 092°09'0 0.2
2017-Sep-12 19:30N 29°48' W 092°09'0 0.2
2017-Sep-12 19:00N 29°48' W 092°09'0 0.0
2017-Sep-12 18:30N 29°48' W 092°09'0 0.0
2017-Sep-12 17:59N 29°48' W 092°09'1 1.5
2017-Sep-12 17:30N 29°47' W 092°09'3 6.0
2017-Sep-12 17:01N 29°45' W 092°12'3 6.6
2017-Sep-12 16:30N 29°43' W 092°15'  
Track history (hours):
 
Tides and Currents Weather Stations Pressure Air Temp Water Temp Dewpoint Dewpoint Depression Visibility Wind Speed Wind Dir Waves Ship Positions

Spencer Philip

Owner: Phil Guilbeau Offshore Inc., Golden Meadow, LA. More information available from US FCC via Universal Licensing System and Coast Guard Vessel Documentation Center.

Last reported at 2017-Sep-21 21:24 UTC. Time now 2017-Oct-20 17:53 UTC.
Position N 29°39' W 092°16'.
Warning: this ship's position is 28 days out of date.

Length 44 m; draft 3.3 m.

Type: Cargo ship. MMSI: 367390890.

Date/timePositionNaut miles runAvg speedWind from/ knotsBaromVisibWave heightAir tempDewpointWater temp
2017-Sep-21 21:24N 29°39' W 092°16'2 6.1
2017-Sep-21 21:00N 29°41' W 092°15'3 6.0
2017-Sep-21 20:30N 29°44' W 092°14'3 5.9
2017-Sep-21 20:00N 29°46' W 092°11'3 4.7
2017-Sep-21 19:27N 29°47' W 092°09'1 1.1
2017-Sep-21 19:00N 29°48' W 092°09'0 0.0
2017-Sep-21 18:30N 29°48' W 092°09'0 0.0
2017-Sep-21 18:00N 29°48' W 092°09'0 0.1
2017-Sep-21 17:30N 29°48' W 092°09'0 0.0
2017-Sep-21 17:00N 29°48' W 092°09'0 0.0
2017-Sep-21 16:24N 29°48' W 092°09'0 0.0
2017-Sep-21 16:00N 29°48' W 092°09'0 0.0
2017-Sep-21 15:30N 29°48' W 092°09'0 0.2
2017-Sep-21 15:00N 29°47' W 092°09'3 5.2
2017-Sep-21 14:30N 29°46' W 092°11'4 7.4
2017-Sep-21 14:00N 29°44' W 092°14'3 6.6
2017-Sep-21 13:30N 29°41' W 092°15'  
2017-Sep-13 00:10N 29°38' W 092°16'1 5.3
2017-Sep-12 23:59N 29°39' W 092°16'3 5.5
2017-Sep-12 23:30N 29°42' W 092°15'3 5.5
2017-Sep-12 23:00N 29°44' W 092°14'3 5.6
2017-Sep-12 22:30N 29°46' W 092°11'2 4.3
2017-Sep-12 22:00N 29°47' W 092°09'1 1.3
2017-Sep-12 21:30N 29°48' W 092°09'0 0.0
2017-Sep-12 21:00N 29°48' W 092°09'0 0.0
2017-Sep-12 20:30N 29°48' W 092°09'0 0.0
2017-Sep-12 20:00N 29°48' W 092°09'0 0.2
2017-Sep-12 19:30N 29°48' W 092°09'0 0.2
2017-Sep-12 19:00N 29°48' W 092°09'0 0.0
2017-Sep-12 18:30N 29°48' W 092°09'0 0.0
2017-Sep-12 17:59N 29°48' W 092°09'1 1.5
2017-Sep-12 17:30N 29°47' W 092°09'3 6.0
2017-Sep-12 17:01N 29°45' W 092°12'3 6.6
2017-Sep-12 16:30N 29°43' W 092°15'  

Dump ship's entire track history